sensor_id;sensor_type;location;lat;lon;timestamp;P1;durP1;ratioP1;P2;durP2;ratioP2
10904;SDS011;5505;51.450;9.254;2023-07-29T00:01:04;2.10;;;0.73;;
10904;SDS011;5505;51.450;9.254;2023-07-29T00:03:52;3.87;;;0.90;;
10904;SDS011;5505;51.450;9.254;2023-07-29T00:06:39;6.57;;;1.07;;
10904;SDS011;5505;51.450;9.254;2023-07-29T00:09:25;2.97;;;0.93;;
10904;SDS011;5505;51.450;9.254;2023-07-29T00:12:12;6.43;;;1.20;;
10904;SDS011;5505;51.450;9.254;2023-07-29T00:14:59;5.87;;;1.10;;
10904;SDS011;5505;51.450;9.254;2023-07-29T00:17:46;3.00;;;1.30;;
10904;SDS011;5505;51.450;9.254;2023-07-29T00:20:34;3.73;;;1.07;;
10904;SDS011;5505;51.450;9.254;2023-07-29T00:23:20;6.23;;;1.20;;
10904;SDS011;5505;51.450;9.254;2023-07-29T00:26:07;6.53;;;1.27;;
10904;SDS011;5505;51.450;9.254;2023-07-29T00:28:54;6.77;;;1.30;;
10904;SDS011;5505;51.450;9.254;2023-07-29T00:31:41;11.47;;;1.60;;
10904;SDS011;5505;51.450;9.254;2023-07-29T00:34:27;11.43;;;1.63;;
10904;SDS011;5505;51.450;9.254;2023-07-29T00:37:17;7.83;;;2.07;;
10904;SDS011;5505;51.450;9.254;2023-07-29T00:40:04;6.53;;;1.40;;
10904;SDS011;5505;51.450;9.254;2023-07-29T00:42:56;3.30;;;1.40;;
10904;SDS011;5505;51.450;9.254;2023-07-29T00:45:43;3.50;;;1.27;;
10904;SDS011;5505;51.450;9.254;2023-07-29T00:48:31;2.87;;;1.33;;
10904;SDS011;5505;51.450;9.254;2023-07-29T00:51:17;6.00;;;1.33;;
10904;SDS011;5505;51.450;9.254;2023-07-29T00:54:06;4.43;;;1.43;;
10904;SDS011;5505;51.450;9.254;2023-07-29T00:56:52;6.63;;;1.53;;
10904;SDS011;5505;51.450;9.254;2023-07-29T00:59:39;5.53;;;1.47;;
10904;SDS011;5505;51.450;9.254;2023-07-29T01:02:26;6.33;;;1.70;;
10904;SDS011;5505;51.450;9.254;2023-07-29T01:05:15;5.23;;;1.40;;
10904;SDS011;5505;51.450;9.254;2023-07-29T01:08:04;5.60;;;1.40;;
10904;SDS011;5505;51.450;9.254;2023-07-29T01:11:08;6.77;;;1.53;;
10904;SDS011;5505;51.450;9.254;2023-07-29T01:14:07;8.53;;;1.77;;
10904;SDS011;5505;51.450;9.254;2023-07-29T01:17:05;6.33;;;1.90;;
10904;SDS011;5505;51.450;9.254;2023-07-29T01:19:59;8.70;;;1.70;;
10904;SDS011;5505;51.450;9.254;2023-07-29T01:22:48;15.20;;;2.20;;
10904;SDS011;5505;51.450;9.254;2023-07-29T01:25:37;13.93;;;2.20;;
10904;SDS011;5505;51.450;9.254;2023-07-29T01:28:24;10.83;;;1.80;;
10904;SDS011;5505;51.450;9.254;2023-07-29T01:31:12;9.97;;;2.27;;
10904;SDS011;5505;51.450;9.254;2023-07-29T01:34:05;8.60;;;1.90;;
10904;SDS011;5505;51.450;9.254;2023-07-29T01:36:56;5.33;;;1.60;;
10904;SDS011;5505;51.450;9.254;2023-07-29T01:39:47;5.83;;;1.50;;
10904;SDS011;5505;51.450;9.254;2023-07-29T01:42:37;6.33;;;1.80;;
10904;SDS011;5505;51.450;9.254;2023-07-29T01:45:24;5.77;;;1.60;;
10904;SDS011;5505;51.450;9.254;2023-07-29T01:48:11;8.93;;;1.70;;
10904;SDS011;5505;51.450;9.254;2023-07-29T01:50:58;5.57;;;1.73;;
10904;SDS011;5505;51.450;9.254;2023-07-29T01:53:45;3.70;;;1.70;;
10904;SDS011;5505;51.450;9.254;2023-07-29T01:56:31;3.57;;;1.50;;
10904;SDS011;5505;51.450;9.254;2023-07-29T01:59:20;3.37;;;1.30;;
10904;SDS011;5505;51.450;9.254;2023-07-29T02:02:06;2.60;;;1.50;;
10904;SDS011;5505;51.450;9.254;2023-07-29T02:04:53;2.07;;;1.47;;
10904;SDS011;5505;51.450;9.254;2023-07-29T02:07:40;2.93;;;1.33;;
10904;SDS011;5505;51.450;9.254;2023-07-29T02:10:27;2.53;;;1.40;;
10904;SDS011;5505;51.450;9.254;2023-07-29T02:13:14;2.53;;;1.30;;
10904;SDS011;5505;51.450;9.254;2023-07-29T02:16:03;2.53;;;1.50;;
10904;SDS011;5505;51.450;9.254;2023-07-29T02:18:50;2.87;;;1.60;;
10904;SDS011;5505;51.450;9.254;2023-07-29T02:21:37;3.47;;;1.40;;
10904;SDS011;5505;51.450;9.254;2023-07-29T02:24:24;3.17;;;1.57;;
10904;SDS011;5505;51.450;9.254;2023-07-29T02:27:10;3.93;;;1.50;;
10904;SDS011;5505;51.450;9.254;2023-07-29T02:29:57;1.97;;;1.40;;
10904;SDS011;5505;51.450;9.254;2023-07-29T02:32:46;2.03;;;1.50;;
10904;SDS011;5505;51.450;9.254;2023-07-29T02:35:32;4.33;;;1.63;;
10904;SDS011;5505;51.450;9.254;2023-07-29T02:38:19;5.43;;;1.40;;
10904;SDS011;5505;51.450;9.254;2023-07-29T02:41:06;6.90;;;1.80;;
10904;SDS011;5505;51.450;9.254;2023-07-29T02:43:54;4.07;;;1.50;;
10904;SDS011;5505;51.450;9.254;2023-07-29T02:46:41;3.97;;;1.80;;
10904;SDS011;5505;51.450;9.254;2023-07-29T02:49:29;4.90;;;2.00;;
10904;SDS011;5505;51.450;9.254;2023-07-29T02:52:16;4.73;;;1.90;;
10904;SDS011;5505;51.450;9.254;2023-07-29T02:55:03;1.90;;;1.50;;
10904;SDS011;5505;51.450;9.254;2023-07-29T02:57:51;2.03;;;1.80;;
10904;SDS011;5505;51.450;9.254;2023-07-29T03:00:38;2.80;;;1.60;;
10904;SDS011;5505;51.450;9.254;2023-07-29T03:03:26;3.53;;;1.80;;
10904;SDS011;5505;51.450;9.254;2023-07-29T03:06:14;3.53;;;1.93;;
10904;SDS011;5505;51.450;9.254;2023-07-29T03:09:01;5.17;;;1.97;;
10904;SDS011;5505;51.450;9.254;2023-07-29T03:11:48;2.03;;;1.80;;
10904;SDS011;5505;51.450;9.254;2023-07-29T03:14:36;3.23;;;1.90;;
10904;SDS011;5505;51.450;9.254;2023-07-29T03:17:22;2.73;;;1.80;;
10904;SDS011;5505;51.450;9.254;2023-07-29T03:20:09;3.13;;;1.80;;
10904;SDS011;5505;51.450;9.254;2023-07-29T03:22:58;4.40;;;1.63;;
10904;SDS011;5505;51.450;9.254;2023-07-29T03:25:47;2.47;;;1.57;;
10904;SDS011;5505;51.450;9.254;2023-07-29T03:28:36;5.17;;;1.70;;
10904;SDS011;5505;51.450;9.254;2023-07-29T03:31:24;1.70;;;1.60;;
10904;SDS011;5505;51.450;9.254;2023-07-29T03:34:11;2.77;;;1.57;;
10904;SDS011;5505;51.450;9.254;2023-07-29T03:36:57;2.57;;;2.00;;
10904;SDS011;5505;51.450;9.254;2023-07-29T03:39:46;2.60;;;1.80;;
10904;SDS011;5505;51.450;9.254;2023-07-29T03:42:33;6.07;;;2.00;;
10904;SDS011;5505;51.450;9.254;2023-07-29T03:45:20;2.97;;;2.40;;
10904;SDS011;5505;51.450;9.254;2023-07-29T03:48:06;5.10;;;2.17;;
10904;SDS011;5505;51.450;9.254;2023-07-29T03:50:54;2.87;;;1.80;;
10904;SDS011;5505;51.450;9.254;2023-07-29T03:53:40;2.13;;;1.60;;
10904;SDS011;5505;51.450;9.254;2023-07-29T03:56:28;2.10;;;1.37;;
10904;SDS011;5505;51.450;9.254;2023-07-29T03:59:15;1.63;;;1.53;;
10904;SDS011;5505;51.450;9.254;2023-07-29T04:02:04;3.20;;;2.20;;
10904;SDS011;5505;51.450;9.254;2023-07-29T04:04:51;4.17;;;1.90;;
10904;SDS011;5505;51.450;9.254;2023-07-29T04:07:38;2.40;;;2.20;;
10904;SDS011;5505;51.450;9.254;2023-07-29T04:10:25;2.97;;;2.70;;
10904;SDS011;5505;51.450;9.254;2023-07-29T04:13:13;3.07;;;2.77;;
10904;SDS011;5505;51.450;9.254;2023-07-29T04:16:00;3.43;;;2.70;;
10904;SDS011;5505;51.450;9.254;2023-07-29T04:18:47;4.53;;;2.77;;
10904;SDS011;5505;51.450;9.254;2023-07-29T04:21:34;3.40;;;2.50;;
10904;SDS011;5505;51.450;9.254;2023-07-29T04:24:20;2.70;;;2.50;;
10904;SDS011;5505;51.450;9.254;2023-07-29T04:27:08;6.77;;;2.70;;
10904;SDS011;5505;51.450;9.254;2023-07-29T04:29:56;2.90;;;2.70;;
10904;SDS011;5505;51.450;9.254;2023-07-29T04:32:43;3.27;;;2.70;;
10904;SDS011;5505;51.450;9.254;2023-07-29T04:35:33;3.20;;;2.70;;
10904;SDS011;5505;51.450;9.254;2023-07-29T04:38:20;4.47;;;3.10;;
10904;SDS011;5505;51.450;9.254;2023-07-29T04:41:06;3.60;;;3.00;;
10904;SDS011;5505;51.450;9.254;2023-07-29T04:43:54;4.57;;;2.70;;
10904;SDS011;5505;51.450;9.254;2023-07-29T04:46:42;3.63;;;3.03;;
10904;SDS011;5505;51.450;9.254;2023-07-29T04:49:28;3.70;;;3.10;;
10904;SDS011;5505;51.450;9.254;2023-07-29T04:52:15;3.60;;;3.00;;
10904;SDS011;5505;51.450;9.254;2023-07-29T04:55:04;4.70;;;2.80;;
10904;SDS011;5505;51.450;9.254;2023-07-29T04:57:51;4.90;;;2.93;;
10904;SDS011;5505;51.450;9.254;2023-07-29T05:00:38;3.23;;;3.03;;
10904;SDS011;5505;51.450;9.254;2023-07-29T05:03:26;3.50;;;3.30;;
10904;SDS011;5505;51.450;9.254;2023-07-29T05:06:13;3.23;;;2.93;;
10904;SDS011;5505;51.450;9.254;2023-07-29T05:09:00;3.30;;;3.10;;
10904;SDS011;5505;51.450;9.254;2023-07-29T05:11:59;3.67;;;3.37;;
10904;SDS011;5505;51.450;9.254;2023-07-29T05:14:45;4.50;;;3.30;;
10904;SDS011;5505;51.450;9.254;2023-07-29T05:17:32;5.70;;;3.53;;
10904;SDS011;5505;51.450;9.254;2023-07-29T05:20:20;5.10;;;3.70;;
10904;SDS011;5505;51.450;9.254;2023-07-29T05:23:07;3.77;;;3.40;;
10904;SDS011;5505;51.450;9.254;2023-07-29T05:25:54;3.70;;;3.40;;
10904;SDS011;5505;51.450;9.254;2023-07-29T05:28:40;5.30;;;3.70;;
10904;SDS011;5505;51.450;9.254;2023-07-29T05:31:27;4.53;;;3.90;;
10904;SDS011;5505;51.450;9.254;2023-07-29T05:34:14;4.10;;;3.80;;
10904;SDS011;5505;51.450;9.254;2023-07-29T05:37:03;4.27;;;3.97;;
10904;SDS011;5505;51.450;9.254;2023-07-29T05:39:50;4.20;;;3.80;;
10904;SDS011;5505;51.450;9.254;2023-07-29T05:42:36;6.17;;;4.23;;
10904;SDS011;5505;51.450;9.254;2023-07-29T05:45:23;6.47;;;4.17;;
10904;SDS011;5505;51.450;9.254;2023-07-29T05:48:10;4.63;;;4.23;;
10904;SDS011;5505;51.450;9.254;2023-07-29T05:50:57;7.03;;;4.33;;
10904;SDS011;5505;51.450;9.254;2023-07-29T05:53:45;4.90;;;4.40;;
10904;SDS011;5505;51.450;9.254;2023-07-29T05:56:31;6.00;;;4.30;;
10904;SDS011;5505;51.450;9.254;2023-07-29T05:59:18;4.40;;;4.10;;
10904;SDS011;5505;51.450;9.254;2023-07-29T06:02:05;4.30;;;3.90;;
10904;SDS011;5505;51.450;9.254;2023-07-29T06:04:52;4.43;;;4.10;;
10904;SDS011;5505;51.450;9.254;2023-07-29T06:07:39;4.33;;;3.93;;
10904;SDS011;5505;51.450;9.254;2023-07-29T06:10:30;3.77;;;3.47;;
10904;SDS011;5505;51.450;9.254;2023-07-29T06:13:17;4.10;;;3.80;;
10904;SDS011;5505;51.450;9.254;2023-07-29T06:16:03;3.90;;;3.60;;
10904;SDS011;5505;51.450;9.254;2023-07-29T06:18:50;3.57;;;3.27;;
10904;SDS011;5505;51.450;9.254;2023-07-29T06:21:37;4.90;;;3.67;;
10904;SDS011;5505;51.450;9.254;2023-07-29T06:24:24;3.80;;;3.40;;
10904;SDS011;5505;51.450;9.254;2023-07-29T06:27:12;3.00;;;2.80;;
10904;SDS011;5505;51.450;9.254;2023-07-29T06:29:59;4.73;;;3.30;;
10904;SDS011;5505;51.450;9.254;2023-07-29T06:32:46;3.13;;;2.83;;
10904;SDS011;5505;51.450;9.254;2023-07-29T06:35:33;3.20;;;2.80;;
10904;SDS011;5505;51.450;9.254;2023-07-29T06:38:19;2.60;;;2.40;;
10904;SDS011;5505;51.450;9.254;2023-07-29T06:41:07;2.80;;;2.50;;
10904;SDS011;5505;51.450;9.254;2023-07-29T06:43:55;4.13;;;2.57;;
10904;SDS011;5505;51.450;9.254;2023-07-29T06:46:42;4.17;;;2.53;;
10904;SDS011;5505;51.450;9.254;2023-07-29T06:49:28;3.00;;;2.80;;
10904;SDS011;5505;51.450;9.254;2023-07-29T06:52:15;2.90;;;2.63;;
10904;SDS011;5505;51.450;9.254;2023-07-29T06:55:02;2.83;;;2.63;;
10904;SDS011;5505;51.450;9.254;2023-07-29T06:57:49;5.83;;;2.70;;
10904;SDS011;5505;51.450;9.254;2023-07-29T07:00:38;2.70;;;2.50;;
10904;SDS011;5505;51.450;9.254;2023-07-29T07:03:25;3.27;;;2.37;;
10904;SDS011;5505;51.450;9.254;2023-07-29T07:06:11;2.40;;;2.20;;
10904;SDS011;5505;51.450;9.254;2023-07-29T07:08:58;2.70;;;2.30;;
10904;SDS011;5505;51.450;9.254;2023-07-29T07:11:45;3.33;;;2.03;;
10904;SDS011;5505;51.450;9.254;2023-07-29T07:14:32;2.40;;;2.20;;
10904;SDS011;5505;51.450;9.254;2023-07-29T07:17:20;3.00;;;2.40;;
10904;SDS011;5505;51.450;9.254;2023-07-29T07:20:07;2.93;;;2.10;;
10904;SDS011;5505;51.450;9.254;2023-07-29T07:22:54;2.27;;;2.17;;
10904;SDS011;5505;51.450;9.254;2023-07-29T07:25:41;2.80;;;2.27;;
10904;SDS011;5505;51.450;9.254;2023-07-29T07:28:28;2.53;;;2.00;;
10904;SDS011;5505;51.450;9.254;2023-07-29T07:31:15;2.40;;;2.20;;
10904;SDS011;5505;51.450;9.254;2023-07-29T07:34:03;2.67;;;1.90;;
10904;SDS011;5505;51.450;9.254;2023-07-29T07:36:50;2.20;;;2.00;;
10904;SDS011;5505;51.450;9.254;2023-07-29T07:39:37;1.97;;;1.87;;
10904;SDS011;5505;51.450;9.254;2023-07-29T07:42:23;3.10;;;1.83;;
10904;SDS011;5505;51.450;9.254;2023-07-29T07:45:10;2.13;;;2.00;;
10904;SDS011;5505;51.450;9.254;2023-07-29T07:47:57;2.23;;;2.07;;
10904;SDS011;5505;51.450;9.254;2023-07-29T07:50:45;1.83;;;1.73;;
10904;SDS011;5505;51.450;9.254;2023-07-29T07:53:32;1.93;;;1.83;;
10904;SDS011;5505;51.450;9.254;2023-07-29T07:56:18;2.43;;;1.90;;
10904;SDS011;5505;51.450;9.254;2023-07-29T07:59:05;3.07;;;1.80;;
10904;SDS011;5505;51.450;9.254;2023-07-29T08:01:53;1.97;;;1.80;;
10904;SDS011;5505;51.450;9.254;2023-07-29T08:04:40;3.93;;;2.47;;
10904;SDS011;5505;51.450;9.254;2023-07-29T08:07:28;2.00;;;1.90;;
10904;SDS011;5505;51.450;9.254;2023-07-29T08:10:15;3.17;;;2.30;;
10904;SDS011;5505;51.450;9.254;2023-07-29T08:13:01;1.97;;;1.60;;
10904;SDS011;5505;51.450;9.254;2023-07-29T08:15:48;3.13;;;1.87;;
10904;SDS011;5505;51.450;9.254;2023-07-29T08:18:36;1.63;;;1.50;;
10904;SDS011;5505;51.450;9.254;2023-07-29T08:21:23;1.63;;;1.53;;
10904;SDS011;5505;51.450;9.254;2023-07-29T08:24:11;2.37;;;1.50;;
10904;SDS011;5505;51.450;9.254;2023-07-29T08:26:57;1.13;;;1.10;;
10904;SDS011;5505;51.450;9.254;2023-07-29T08:29:44;3.47;;;1.30;;
10904;SDS011;5505;51.450;9.254;2023-07-29T08:32:31;2.97;;;1.40;;
10904;SDS011;5505;51.450;9.254;2023-07-29T08:35:18;1.73;;;1.63;;
10904;SDS011;5505;51.450;9.254;2023-07-29T08:38:04;1.33;;;1.20;;
10904;SDS011;5505;51.450;9.254;2023-07-29T08:40:53;1.50;;;1.33;;
10904;SDS011;5505;51.450;9.254;2023-07-29T08:46:52;1.80;;;1.20;;
10904;SDS011;5505;51.450;9.254;2023-07-29T08:49:41;2.43;;;1.23;;
10904;SDS011;5505;51.450;9.254;2023-07-29T08:52:28;1.70;;;1.30;;
10904;SDS011;5505;51.450;9.254;2023-07-29T08:55:17;1.87;;;1.00;;
10904;SDS011;5505;51.450;9.254;2023-07-29T08:58:06;1.23;;;1.10;;
10904;SDS011;5505;51.450;9.254;2023-07-29T09:00:53;1.20;;;1.17;;
10904;SDS011;5505;51.450;9.254;2023-07-29T09:03:40;1.10;;;1.10;;
10904;SDS011;5505;51.450;9.254;2023-07-29T09:06:27;1.47;;;1.03;;
10904;SDS011;5505;51.450;9.254;2023-07-29T09:09:14;1.47;;;0.90;;
10904;SDS011;5505;51.450;9.254;2023-07-29T09:12:01;1.20;;;1.10;;
10904;SDS011;5505;51.450;9.254;2023-07-29T09:14:52;1.30;;;1.30;;
10904;SDS011;5505;51.450;9.254;2023-07-29T09:17:40;1.40;;;1.30;;
10904;SDS011;5505;51.450;9.254;2023-07-29T09:20:27;2.30;;;1.50;;
10904;SDS011;5505;51.450;9.254;2023-07-29T09:23:14;1.70;;;1.60;;
10904;SDS011;5505;51.450;9.254;2023-07-29T09:26:01;1.53;;;1.43;;
10904;SDS011;5505;51.450;9.254;2023-07-29T09:28:51;2.40;;;1.40;;
10904;SDS011;5505;51.450;9.254;2023-07-29T09:31:39;3.53;;;1.53;;
10904;SDS011;5505;51.450;9.254;2023-07-29T09:34:26;2.40;;;1.47;;
10904;SDS011;5505;51.450;9.254;2023-07-29T09:37:17;3.93;;;1.70;;
10904;SDS011;5505;51.450;9.254;2023-07-29T09:40:07;2.00;;;1.80;;
10904;SDS011;5505;51.450;9.254;2023-07-29T09:43:00;3.20;;;1.73;;
10904;SDS011;5505;51.450;9.254;2023-07-29T09:45:47;2.13;;;1.97;;
10904;SDS011;5505;51.450;9.254;2023-07-29T09:48:35;3.10;;;1.80;;
10904;SDS011;5505;51.450;9.254;2023-07-29T09:51:23;2.40;;;1.67;;
10904;SDS011;5505;51.450;9.254;2023-07-29T09:54:10;2.10;;;2.00;;
10904;SDS011;5505;51.450;9.254;2023-07-29T09:56:58;2.17;;;2.07;;
10904;SDS011;5505;51.450;9.254;2023-07-29T09:59:52;2.50;;;2.40;;
10904;SDS011;5505;51.450;9.254;2023-07-29T10:02:40;2.70;;;2.00;;
10904;SDS011;5505;51.450;9.254;2023-07-29T10:05:30;2.10;;;1.90;;
10904;SDS011;5505;51.450;9.254;2023-07-29T10:08:16;2.20;;;2.10;;
10904;SDS011;5505;51.450;9.254;2023-07-29T10:11:05;2.37;;;2.17;;
10904;SDS011;5505;51.450;9.254;2023-07-29T10:13:53;1.83;;;1.73;;
10904;SDS011;5505;51.450;9.254;2023-07-29T10:16:40;2.23;;;1.80;;
10904;SDS011;5505;51.450;9.254;2023-07-29T10:19:30;2.70;;;2.23;;
10904;SDS011;5505;51.450;9.254;2023-07-29T10:22:18;2.70;;;1.90;;
10904;SDS011;5505;51.450;9.254;2023-07-29T10:25:08;2.17;;;2.07;;
10904;SDS011;5505;51.450;9.254;2023-07-29T10:28:02;2.23;;;1.77;;
10904;SDS011;5505;51.450;9.254;2023-07-29T10:30:51;3.97;;;2.20;;
10904;SDS011;5505;51.450;9.254;2023-07-29T10:33:39;2.17;;;1.97;;
10904;SDS011;5505;51.450;9.254;2023-07-29T10:36:27;2.30;;;1.80;;
10904;SDS011;5505;51.450;9.254;2023-07-29T10:39:15;1.77;;;1.67;;
10904;SDS011;5505;51.450;9.254;2023-07-29T10:42:03;1.73;;;1.63;;
10904;SDS011;5505;51.450;9.254;2023-07-29T10:44:52;1.90;;;1.60;;
10904;SDS011;5505;51.450;9.254;2023-07-29T10:47:39;2.20;;;1.60;;
10904;SDS011;5505;51.450;9.254;2023-07-29T10:50:26;2.90;;;1.30;;
10904;SDS011;5505;51.450;9.254;2023-07-29T10:53:13;1.57;;;1.47;;
10904;SDS011;5505;51.450;9.254;2023-07-29T10:56:03;2.10;;;1.70;;
10904;SDS011;5505;51.450;9.254;2023-07-29T10:58:50;1.20;;;1.10;;
10904;SDS011;5505;51.450;9.254;2023-07-29T11:01:38;1.60;;;1.40;;
10904;SDS011;5505;51.450;9.254;2023-07-29T11:04:26;1.27;;;1.20;;
10904;SDS011;5505;51.450;9.254;2023-07-29T11:07:21;1.63;;;1.33;;
10904;SDS011;5505;51.450;9.254;2023-07-29T11:10:11;1.77;;;1.27;;
10904;SDS011;5505;51.450;9.254;2023-07-29T11:13:00;2.23;;;1.73;;
10904;SDS011;5505;51.450;9.254;2023-07-29T11:15:47;1.40;;;1.30;;
10904;SDS011;5505;51.450;9.254;2023-07-29T11:18:36;1.30;;;1.20;;
10904;SDS011;5505;51.450;9.254;2023-07-29T11:21:23;1.90;;;1.07;;
10904;SDS011;5505;51.450;9.254;2023-07-29T11:24:11;1.10;;;1.00;;
10904;SDS011;5505;51.450;9.254;2023-07-29T11:27:04;1.00;;;1.00;;
10904;SDS011;5505;51.450;9.254;2023-07-29T11:29:57;1.23;;;1.13;;
10904;SDS011;5505;51.450;9.254;2023-07-29T11:32:45;1.20;;;1.00;;
10904;SDS011;5505;51.450;9.254;2023-07-29T11:35:32;1.27;;;0.90;;
10904;SDS011;5505;51.450;9.254;2023-07-29T11:38:20;1.10;;;1.10;;
10904;SDS011;5505;51.450;9.254;2023-07-29T11:41:08;1.77;;;1.10;;
10904;SDS011;5505;51.450;9.254;2023-07-29T11:43:54;1.20;;;1.00;;
10904;SDS011;5505;51.450;9.254;2023-07-29T11:46:43;2.30;;;1.10;;
10904;SDS011;5505;51.450;9.254;2023-07-29T11:49:30;1.10;;;1.00;;
10904;SDS011;5505;51.450;9.254;2023-07-29T11:52:16;3.10;;;1.00;;
10904;SDS011;5505;51.450;9.254;2023-07-29T11:55:05;2.10;;;0.90;;
10904;SDS011;5505;51.450;9.254;2023-07-29T11:57:52;1.20;;;1.10;;
10904;SDS011;5505;51.450;9.254;2023-07-29T12:00:39;2.47;;;1.00;;
10904;SDS011;5505;51.450;9.254;2023-07-29T12:03:27;2.57;;;1.00;;
10904;SDS011;5505;51.450;9.254;2023-07-29T12:06:14;1.10;;;1.00;;
10904;SDS011;5505;51.450;9.254;2023-07-29T12:09:01;1.37;;;1.00;;
10904;SDS011;5505;51.450;9.254;2023-07-29T12:11:48;0.80;;;0.80;;
10904;SDS011;5505;51.450;9.254;2023-07-29T12:14:35;2.73;;;1.00;;
10904;SDS011;5505;51.450;9.254;2023-07-29T12:17:22;1.00;;;1.00;;
10904;SDS011;5505;51.450;9.254;2023-07-29T12:20:10;1.27;;;0.97;;
10904;SDS011;5505;51.450;9.254;2023-07-29T12:22:57;1.90;;;0.93;;
10904;SDS011;5505;51.450;9.254;2023-07-29T12:25:46;0.80;;;0.80;;
10904;SDS011;5505;51.450;9.254;2023-07-29T12:28:33;0.80;;;0.80;;
10904;SDS011;5505;51.450;9.254;2023-07-29T12:31:19;1.47;;;0.93;;
10904;SDS011;5505;51.450;9.254;2023-07-29T12:34:06;1.83;;;0.80;;
10904;SDS011;5505;51.450;9.254;2023-07-29T12:36:55;7.07;;;0.70;;
10904;SDS011;5505;51.450;9.254;2023-07-29T12:39:43;1.13;;;0.73;;
10904;SDS011;5505;51.450;9.254;2023-07-29T12:42:30;0.77;;;0.77;;
10904;SDS011;5505;51.450;9.254;2023-07-29T12:45:17;2.97;;;0.77;;
10904;SDS011;5505;51.450;9.254;2023-07-29T12:48:04;0.50;;;0.50;;
10904;SDS011;5505;51.450;9.254;2023-07-29T12:50:51;0.70;;;0.70;;
10904;SDS011;5505;51.450;9.254;2023-07-29T12:53:39;0.60;;;0.60;;
10904;SDS011;5505;51.450;9.254;2023-07-29T12:56:25;1.73;;;0.80;;
10904;SDS011;5505;51.450;9.254;2023-07-29T12:59:12;2.17;;;0.90;;
10904;SDS011;5505;51.450;9.254;2023-07-29T13:01:59;1.23;;;0.90;;
10904;SDS011;5505;51.450;9.254;2023-07-29T13:04:46;0.90;;;0.90;;
10904;SDS011;5505;51.450;9.254;2023-07-29T13:07:32;1.23;;;1.07;;
10904;SDS011;5505;51.450;9.254;2023-07-29T13:10:21;1.20;;;1.10;;
10904;SDS011;5505;51.450;9.254;2023-07-29T13:13:09;1.13;;;0.80;;
10904;SDS011;5505;51.450;9.254;2023-07-29T13:15:56;0.97;;;0.90;;
10904;SDS011;5505;51.450;9.254;2023-07-29T13:18:43;0.70;;;0.70;;
10904;SDS011;5505;51.450;9.254;2023-07-29T13:21:30;1.07;;;0.90;;
10904;SDS011;5505;51.450;9.254;2023-07-29T13:24:17;1.20;;;1.10;;
10904;SDS011;5505;51.450;9.254;2023-07-29T13:27:05;2.00;;;1.27;;
10904;SDS011;5505;51.450;9.254;2023-07-29T13:29:52;1.33;;;1.23;;
10904;SDS011;5505;51.450;9.254;2023-07-29T13:32:39;1.07;;;0.90;;
10904;SDS011;5505;51.450;9.254;2023-07-29T13:35:26;2.53;;;1.30;;
10904;SDS011;5505;51.450;9.254;2023-07-29T13:38:13;1.37;;;1.27;;
10904;SDS011;5505;51.450;9.254;2023-07-29T13:40:59;0.90;;;0.90;;
10904;SDS011;5505;51.450;9.254;2023-07-29T13:43:47;1.23;;;1.10;;
10904;SDS011;5505;51.450;9.254;2023-07-29T13:46:34;0.97;;;0.97;;
10904;SDS011;5505;51.450;9.254;2023-07-29T13:49:21;1.00;;;0.87;;
10904;SDS011;5505;51.450;9.254;2023-07-29T13:52:08;2.07;;;0.90;;
10904;SDS011;5505;51.450;9.254;2023-07-29T13:54:55;1.13;;;1.00;;
10904;SDS011;5505;51.450;9.254;2023-07-29T13:57:41;1.00;;;0.90;;
10904;SDS011;5505;51.450;9.254;2023-07-29T14:00:30;1.07;;;0.90;;
10904;SDS011;5505;51.450;9.254;2023-07-29T14:03:16;0.73;;;0.73;;
10904;SDS011;5505;51.450;9.254;2023-07-29T14:06:03;1.20;;;0.90;;
10904;SDS011;5505;51.450;9.254;2023-07-29T14:08:50;1.00;;;1.00;;
10904;SDS011;5505;51.450;9.254;2023-07-29T14:11:36;1.10;;;1.03;;
10904;SDS011;5505;51.450;9.254;2023-07-29T14:14:23;1.93;;;0.90;;
10904;SDS011;5505;51.450;9.254;2023-07-29T14:17:11;0.90;;;0.90;;
10904;SDS011;5505;51.450;9.254;2023-07-29T14:19:58;0.73;;;0.73;;
10904;SDS011;5505;51.450;9.254;2023-07-29T14:22:45;1.00;;;1.00;;
10904;SDS011;5505;51.450;9.254;2023-07-29T14:25:32;1.87;;;0.70;;
10904;SDS011;5505;51.450;9.254;2023-07-29T14:28:19;1.30;;;0.90;;
10904;SDS011;5505;51.450;9.254;2023-07-29T14:31:06;0.97;;;0.83;;
10904;SDS011;5505;51.450;9.254;2023-07-29T14:33:54;1.00;;;0.90;;
10904;SDS011;5505;51.450;9.254;2023-07-29T14:36:41;3.23;;;0.87;;
10904;SDS011;5505;51.450;9.254;2023-07-29T14:39:27;1.30;;;0.90;;
10904;SDS011;5505;51.450;9.254;2023-07-29T14:42:14;1.40;;;1.03;;
10904;SDS011;5505;51.450;9.254;2023-07-29T14:45:01;1.63;;;0.80;;
10904;SDS011;5505;51.450;9.254;2023-07-29T14:47:48;1.87;;;1.10;;
10904;SDS011;5505;51.450;9.254;2023-07-29T14:50:36;0.93;;;0.93;;
10904;SDS011;5505;51.450;9.254;2023-07-29T14:53:23;0.93;;;0.93;;
10904;SDS011;5505;51.450;9.254;2023-07-29T14:56:10;2.83;;;0.80;;
10904;SDS011;5505;51.450;9.254;2023-07-29T14:58:58;1.10;;;0.87;;
10904;SDS011;5505;51.450;9.254;2023-07-29T15:01:45;0.83;;;0.83;;
10904;SDS011;5505;51.450;9.254;2023-07-29T15:04:32;0.80;;;0.80;;
10904;SDS011;5505;51.450;9.254;2023-07-29T15:07:20;1.03;;;1.00;;
10904;SDS011;5505;51.450;9.254;2023-07-29T15:10:07;1.63;;;1.00;;
10904;SDS011;5505;51.450;9.254;2023-07-29T15:12:54;0.93;;;0.93;;
10904;SDS011;5505;51.450;9.254;2023-07-29T15:15:41;0.90;;;0.90;;
10904;SDS011;5505;51.450;9.254;2023-07-29T15:18:28;1.93;;;1.13;;
10904;SDS011;5505;51.450;9.254;2023-07-29T15:21:16;1.80;;;0.93;;
10904;SDS011;5505;51.450;9.254;2023-07-29T15:24:04;1.17;;;1.07;;
10904;SDS011;5505;51.450;9.254;2023-07-29T15:26:51;1.70;;;1.20;;
10904;SDS011;5505;51.450;9.254;2023-07-29T15:29:38;1.53;;;0.70;;
10904;SDS011;5505;51.450;9.254;2023-07-29T15:32:24;1.13;;;1.00;;
10904;SDS011;5505;51.450;9.254;2023-07-29T15:35:13;4.00;;;0.90;;
10904;SDS011;5505;51.450;9.254;2023-07-29T15:37:59;1.87;;;1.00;;
10904;SDS011;5505;51.450;9.254;2023-07-29T15:40:49;1.53;;;0.80;;
10904;SDS011;5505;51.450;9.254;2023-07-29T15:43:37;1.20;;;1.10;;
10904;SDS011;5505;51.450;9.254;2023-07-29T15:46:23;1.10;;;0.90;;
10904;SDS011;5505;51.450;9.254;2023-07-29T15:49:10;1.00;;;1.00;;
10904;SDS011;5505;51.450;9.254;2023-07-29T15:51:57;2.60;;;1.30;;
10904;SDS011;5505;51.450;9.254;2023-07-29T15:54:44;1.00;;;0.97;;
10904;SDS011;5505;51.450;9.254;2023-07-29T15:57:32;1.13;;;1.03;;
10904;SDS011;5505;51.450;9.254;2023-07-29T16:00:19;1.00;;;1.00;;
10904;SDS011;5505;51.450;9.254;2023-07-29T16:03:07;2.03;;;1.10;;
10904;SDS011;5505;51.450;9.254;2023-07-29T16:05:54;1.20;;;1.10;;
10904;SDS011;5505;51.450;9.254;2023-07-29T16:08:41;1.40;;;0.93;;
10904;SDS011;5505;51.450;9.254;2023-07-29T16:11:27;1.83;;;1.20;;
10904;SDS011;5505;51.450;9.254;2023-07-29T16:14:15;0.97;;;0.97;;
10904;SDS011;5505;51.450;9.254;2023-07-29T16:17:04;2.50;;;1.13;;
10904;SDS011;5505;51.450;9.254;2023-07-29T16:19:52;1.87;;;1.10;;
10904;SDS011;5505;51.450;9.254;2023-07-29T16:22:40;1.17;;;1.10;;
10904;SDS011;5505;51.450;9.254;2023-07-29T16:25:27;2.93;;;1.10;;
10904;SDS011;5505;51.450;9.254;2023-07-29T16:28:14;1.33;;;1.13;;
10904;SDS011;5505;51.450;9.254;2023-07-29T16:31:02;1.00;;;1.00;;
10904;SDS011;5505;51.450;9.254;2023-07-29T16:33:49;1.30;;;1.20;;
10904;SDS011;5505;51.450;9.254;2023-07-29T16:36:36;1.30;;;1.20;;
10904;SDS011;5505;51.450;9.254;2023-07-29T16:39:22;1.07;;;1.00;;
10904;SDS011;5505;51.450;9.254;2023-07-29T16:42:09;1.30;;;1.20;;
10904;SDS011;5505;51.450;9.254;2023-07-29T16:44:56;0.93;;;0.93;;
10904;SDS011;5505;51.450;9.254;2023-07-29T16:47:44;1.43;;;1.17;;
10904;SDS011;5505;51.450;9.254;2023-07-29T16:50:30;1.33;;;1.17;;
10904;SDS011;5505;51.450;9.254;2023-07-29T16:53:19;0.80;;;0.80;;
10904;SDS011;5505;51.450;9.254;2023-07-29T16:56:06;3.53;;;1.20;;
10904;SDS011;5505;51.450;9.254;2023-07-29T16:58:53;3.10;;;1.10;;
10904;SDS011;5505;51.450;9.254;2023-07-29T17:01:39;3.20;;;0.97;;
10904;SDS011;5505;51.450;9.254;2023-07-29T17:04:27;1.20;;;1.10;;
10904;SDS011;5505;51.450;9.254;2023-07-29T17:07:14;1.47;;;1.10;;